Time;durP1;ratioP1;P1;durP2;ratioP2;P2;SDS_P1;SDS_P2;PMS_P1;PMS_P2;Temp;Humidity;BMP_temperature;BMP_pressure;BME280_temperature;BME280_humidity;BME280_pressure;Samples;Min_cycle;Max_cycle;Signal;HPM_P1;HPM_P2
2022/03/01 00:00:17;;;;;;;12.20;7.38;;;;;;;;;;5073467;28;20579;-79
2022/03/01 00:02:44;;;;;;;13.15;8.48;;;;;;;;;;5067052;28;20202;-82
2022/03/01 00:05:12;;;;;;;13.50;8.35;;;;;;;;;;5069542;28;20574;-80
2022/03/01 00:07:39;;;;;;;15.50;9.80;;;;;;;;;;5071716;28;20202;-78
2022/03/01 00:10:07;;;;;;;12.23;8.48;;;;;;;;;;5071091;28;20569;-79
2022/03/01 00:12:34;;;;;;;12.07;8.85;;;;;;;;;;5071765;28;20293;-79
2022/03/01 00:15:03;;;;;;;13.10;9.80;;;;;;;;;;5070802;28;20217;-82
2022/03/01 00:17:30;;;;;;;11.32;8.20;;;;;;;;;;5068647;28;20259;-81
2022/03/01 00:19:57;;;;;;;12.18;7.15;;;;;;;;;;5067555;28;20213;-78
2022/03/01 00:22:24;;;;;;;11.32;6.78;;;;;;;;;;5070086;28;20206;-79
2022/03/01 00:24:51;;;;;;;11.30;6.65;;;;;;;;;;5070611;28;20226;-84
2022/03/01 00:27:19;;;;;;;9.35;6.68;;;;;;;;;;5065690;28;20203;-79
2022/03/01 00:29:46;;;;;;;10.30;6.07;;;;;;;;;;5071789;28;20198;-81
2022/03/01 00:32:14;;;;;;;11.13;7.13;;;;;;;;;;5071795;28;20208;-81
2022/03/01 00:34:41;;;;;;;10.98;7.20;;;;;;;;;;5063301;28;20808;-78
2022/03/01 00:37:09;;;;;;;10.02;6.90;;;;;;;;;;5068250;28;20349;-79
2022/03/01 00:39:36;;;;;;;9.85;7.88;;;;;;;;;;5068202;28;20216;-80
2022/03/01 00:42:03;;;;;;;9.80;7.32;;;;;;;;;;5068720;28;20218;-81
2022/03/01 00:44:30;;;;;;;10.52;7.75;;;;;;;;;;5045067;28;20438;-78
2022/03/01 00:46:57;;;;;;;12.00;8.02;;;;;;;;;;5069093;28;20198;-79
2022/03/01 00:49:26;;;;;;;9.90;6.90;;;;;;;;;;5069191;28;20584;-79
2022/03/01 00:51:53;;;;;;;11.52;7.80;;;;;;;;;;5061145;28;20301;-80
2022/03/01 00:54:20;;;;;;;8.38;6.63;;;;;;;;;;5064397;28;20233;-80
2022/03/01 00:57:02;;;;;;;7.78;6.10;;;;;;;;;;5068346;28;20206;-80
2022/03/01 00:59:29;;;;;;;9.90;7.30;;;;;;;;;;5045448;28;20596;-82
2022/03/01 01:01:56;;;;;;;13.13;8.02;;;;;;;;;;5044281;28;20225;-78
2022/03/01 01:04:23;;;;;;;10.07;7.88;;;;;;;;;;5047970;28;20221;-79
2022/03/01 01:06:52;;;;;;;10.88;7.05;;;;;;;;;;5047075;28;20205;-78
2022/03/01 01:09:19;;;;;;;10.93;7.70;;;;;;;;;;5031081;28;20213;-79
2022/03/01 01:11:46;;;;;;;9.25;7.65;;;;;;;;;;5034484;28;20194;-78
2022/03/01 01:14:13;;;;;;;10.93;7.45;;;;;;;;;;5030179;28;20224;-79
2022/03/01 01:16:41;;;;;;;10.55;7.72;;;;;;;;;;5045502;28;20218;-79
2022/03/01 01:19:08;;;;;;;9.95;6.57;;;;;;;;;;5044921;28;20202;-81
2022/03/01 01:24:17;;;;;;;8.63;6.80;;;;;;;;;;5026154;28;20570;-80
2022/03/01 01:26:44;;;;;;;9.00;7.15;;;;;;;;;;5032840;28;20222;-80
2022/03/01 01:29:11;;;;;;;10.43;7.90;;;;;;;;;;5035446;28;20195;-77
2022/03/01 01:31:39;;;;;;;11.48;7.05;;;;;;;;;;5067570;28;20216;-80
2022/03/01 01:34:06;;;;;;;9.85;7.55;;;;;;;;;;5069795;28;20202;-82
2022/03/01 01:36:33;;;;;;;15.77;7.95;;;;;;;;;;5070242;28;20918;-79
2022/03/01 01:39:00;;;;;;;12.23;8.18;;;;;;;;;;5067375;28;20276;-78
2022/03/01 01:41:29;;;;;;;9.35;7.80;;;;;;;;;;5065503;28;20283;-79
2022/03/01 01:43:56;;;;;;;11.50;7.82;;;;;;;;;;5062090;28;20194;-82
2022/03/01 01:46:23;;;;;;;13.07;8.65;;;;;;;;;;5067309;28;20209;-79
2022/03/01 01:48:50;;;;;;;9.75;7.13;;;;;;;;;;5068502;28;20291;-79
2022/03/01 01:51:17;;;;;;;9.52;7.15;;;;;;;;;;5069498;28;20194;-78
2022/03/01 01:53:44;;;;;;;12.93;8.10;;;;;;;;;;5066344;28;20272;-80
2022/03/01 01:56:11;;;;;;;10.50;7.97;;;;;;;;;;5071111;28;20217;-80
2022/03/01 01:58:40;;;;;;;11.90;7.28;;;;;;;;;;5066978;28;20205;-77
2022/03/01 02:01:07;;;;;;;10.02;7.40;;;;;;;;;;5051382;28;20225;-81
2022/03/01 02:03:34;;;;;;;9.80;6.63;;;;;;;;;;5063457;28;20294;-79
2022/03/01 02:06:01;;;;;;;12.52;8.85;;;;;;;;;;5066975;28;20213;-79
2022/03/01 02:08:30;;;;;;;12.48;8.70;;;;;;;;;;5069428;28;20202;-80
2022/03/01 02:10:57;;;;;;;12.85;7.95;;;;;;;;;;5069883;28;20251;-78
2022/03/01 02:13:25;;;;;;;12.88;8.43;;;;;;;;;;5070375;28;20198;-81
2022/03/01 02:15:53;;;;;;;12.75;8.30;;;;;;;;;;5068708;28;20210;-80
2022/03/01 02:18:21;;;;;;;11.45;8.18;;;;;;;;;;5068071;28;20202;-81
2022/03/01 02:20:49;;;;;;;10.70;7.55;;;;;;;;;;5065839;28;20222;-81
2022/03/01 02:23:16;;;;;;;10.43;7.00;;;;;;;;;;5067356;28;20198;-82
2022/03/01 02:25:44;;;;;;;14.23;8.95;;;;;;;;;;5068889;28;20757;-79
2022/03/01 02:28:11;;;;;;;8.13;6.88;;;;;;;;;;5054193;28;20513;-78
2022/03/01 02:30:38;;;;;;;10.52;7.28;;;;;;;;;;5066455;28;20225;-79
2022/03/01 02:33:05;;;;;;;12.77;8.65;;;;;;;;;;5070595;28;20689;-77
2022/03/01 02:35:32;;;;;;;10.20;7.35;;;;;;;;;;5065815;28;20222;-80
2022/03/01 02:38:01;;;;;;;9.13;7.20;;;;;;;;;;5067650;28;20190;-78
2022/03/01 02:40:28;;;;;;;9.77;8.38;;;;;;;;;;5066115;28;20242;-77
2022/03/01 02:42:55;;;;;;;10.55;7.97;;;;;;;;;;5070389;28;20559;-77
2022/03/01 02:45:23;;;;;;;9.70;7.55;;;;;;;;;;5069113;28;20225;-78
2022/03/01 02:47:50;;;;;;;10.40;7.47;;;;;;;;;;5048755;28;20194;-80
2022/03/01 02:50:18;;;;;;;10.45;7.47;;;;;;;;;;5049739;28;20199;-79
2022/03/01 02:52:45;;;;;;;15.52;7.13;;;;;;;;;;5052765;28;20199;-81
2022/03/01 02:55:14;;;;;;;11.65;7.28;;;;;;;;;;5051532;28;20223;-80
2022/03/01 02:57:42;;;;;;;11.98;8.60;;;;;;;;;;5065280;28;20634;-77
2022/03/01 03:00:10;;;;;;;12.77;7.90;;;;;;;;;;5066270;28;20194;-79
2022/03/01 03:02:37;;;;;;;13.70;8.60;;;;;;;;;;5070417;28;20218;-79
2022/03/01 03:05:06;;;;;;;12.68;7.30;;;;;;;;;;5072702;28;20313;-78
2022/03/01 03:07:33;;;;;;;9.98;6.82;;;;;;;;;;5071697;28;20197;-82
2022/03/01 03:10:00;;;;;;;10.23;7.38;;;;;;;;;;5072343;28;20729;-78
2022/03/01 03:12:29;;;;;;;13.48;7.95;;;;;;;;;;5073666;28;20288;-78
2022/03/01 03:14:56;;;;;;;11.35;8.52;;;;;;;;;;5074810;28;20578;-80
2022/03/01 03:17:24;;;;;;;10.43;7.75;;;;;;;;;;5073411;28;20193;-82
2022/03/01 03:19:51;;;;;;;13.20;8.13;;;;;;;;;;5069988;28;20197;-79
2022/03/01 03:22:19;;;;;;;13.35;8.63;;;;;;;;;;5070568;28;20264;-82
2022/03/01 03:24:46;;;;;;;9.95;7.72;;;;;;;;;;5070989;28;20245;-80
2022/03/01 03:27:13;;;;;;;12.57;8.20;;;;;;;;;;5071577;28;20320;-83
2022/03/01 03:29:41;;;;;;;12.40;7.50;;;;;;;;;;5072628;28;20202;-80
2022/03/01 03:32:09;;;;;;;8.90;6.95;;;;;;;;;;5072713;28;20653;-78
2022/03/01 03:34:36;;;;;;;10.60;7.78;;;;;;;;;;5067257;28;20241;-77
2022/03/01 03:37:03;;;;;;;10.90;7.38;;;;;;;;;;5059025;28;20202;-76
2022/03/01 03:39:31;;;;;;;11.05;6.75;;;;;;;;;;5069200;28;20567;-77
2022/03/01 03:41:58;;;;;;;9.75;7.13;;;;;;;;;;5067007;28;20220;-83
2022/03/01 03:44:25;;;;;;;10.18;7.15;;;;;;;;;;5061756;28;20217;-79
2022/03/01 03:46:53;;;;;;;9.50;7.30;;;;;;;;;;5051031;28;20647;-81
2022/03/01 03:49:22;;;;;;;10.70;7.05;;;;;;;;;;5051759;28;20587;-78
2022/03/01 03:51:50;;;;;;;12.20;7.97;;;;;;;;;;5052378;28;20230;-78
2022/03/01 03:54:17;;;;;;;11.15;8.20;;;;;;;;;;5052753;28;20733;-77
2022/03/01 03:56:44;;;;;;;10.63;7.47;;;;;;;;;;5066743;28;20640;-80
2022/03/01 03:59:11;;;;;;;10.80;8.57;;;;;;;;;;5067874;28;20194;-79
2022/03/01 04:01:38;;;;;;;11.10;8.10;;;;;;;;;;5071195;28;20220;-81
2022/03/01 04:04:08;;;;;;;9.93;6.85;;;;;;;;;;5069527;28;20197;-81
2022/03/01 04:06:35;;;;;;;8.82;6.47;;;;;;;;;;5071721;28;20205;-80
2022/03/01 04:09:02;;;;;;;13.02;7.30;;;;;;;;;;5070905;28;20194;-79
2022/03/01 04:11:29;;;;;;;10.32;8.13;;;;;;;;;;5066841;28;20213;-82
2022/03/01 04:13:57;;;;;;;10.15;7.10;;;;;;;;;;5068849;28;20566;-81
2022/03/01 04:16:24;;;;;;;10.15;7.90;;;;;;;;;;5069473;28;20302;-79
2022/03/01 04:18:51;;;;;;;12.82;7.15;;;;;;;;;;5067328;28;20339;-82
2022/03/01 04:21:20;;;;;;;12.10;7.95;;;;;;;;;;5053627;28;20244;-79
2022/03/01 04:23:48;;;;;;;12.10;8.30;;;;;;;;;;5072065;28;20524;-77
2022/03/01 04:26:16;;;;;;;10.88;7.78;;;;;;;;;;5071559;28;20238;-81
2022/03/01 04:28:44;;;;;;;12.07;7.90;;;;;;;;;;5064816;28;20249;-81
2022/03/01 04:31:11;;;;;;;11.80;7.88;;;;;;;;;;5059615;28;20206;-78
2022/03/01 04:33:38;;;;;;;10.38;7.57;;;;;;;;;;5066906;28;20190;-79
2022/03/01 04:36:06;;;;;;;9.13;7.50;;;;;;;;;;5063309;28;20223;-81
2022/03/01 04:38:34;;;;;;;9.45;6.85;;;;;;;;;;5051303;28;20281;-81
2022/03/01 04:41:01;;;;;;;11.95;7.85;;;;;;;;;;5050864;28;20282;-79
2022/03/01 04:43:29;;;;;;;9.68;7.20;;;;;;;;;;5051390;28;20341;-80
2022/03/01 04:45:56;;;;;;;10.70;8.65;;;;;;;;;;5051472;28;20226;-81
2022/03/01 04:48:23;;;;;;;10.75;7.53;;;;;;;;;;5057446;28;20284;-80
2022/03/01 04:50:51;;;;;;;9.90;7.30;;;;;;;;;;5066399;28;20202;-82
2022/03/01 04:53:19;;;;;;;12.50;8.30;;;;;;;;;;5067743;28;20202;-82
2022/03/01 04:55:47;;;;;;;10.95;7.78;;;;;;;;;;5070923;28;20225;-81
2022/03/01 04:58:14;;;;;;;14.05;8.10;;;;;;;;;;5069499;28;20200;-78
2022/03/01 05:00:42;;;;;;;13.27;7.85;;;;;;;;;;5069109;28;20281;-81
2022/03/01 05:03:09;;;;;;;10.88;7.57;;;;;;;;;;5070916;28;20229;-77
2022/03/01 05:05:36;;;;;;;11.35;7.28;;;;;;;;;;5063444;28;20241;-84
2022/03/01 05:08:03;;;;;;;13.05;7.63;;;;;;;;;;5068755;28;20212;-77
2022/03/01 05:10:30;;;;;;;11.38;7.50;;;;;;;;;;5066027;28;20662;-80
2022/03/01 05:13:01;;;;;;;10.63;7.00;;;;;;;;;;5068975;28;20197;-79
2022/03/01 05:15:29;;;;;;;14.02;8.32;;;;;;;;;;5070788;28;20218;-80
2022/03/01 05:17:57;;;;;;;10.43;7.35;;;;;;;;;;5069247;28;20562;-78
2022/03/01 05:20:25;;;;;;;11.98;8.38;;;;;;;;;;5067215;28;20673;-78
2022/03/01 05:22:53;;;;;;;10.73;7.30;;;;;;;;;;5052568;28;20686;-78
2022/03/01 05:25:20;;;;;;;10.00;7.45;;;;;;;;;;5063021;28;20232;-79
2022/03/01 05:27:49;;;;;;;11.68;8.35;;;;;;;;;;5068978;28;20244;-80
2022/03/01 05:30:18;;;;;;;14.02;8.65;;;;;;;;;;5067638;28;20194;-79
2022/03/01 05:32:47;;;;;;;11.98;8.65;;;;;;;;;;5069605;28;20198;-79
2022/03/01 05:35:15;;;;;;;11.18;8.25;;;;;;;;;;5070782;28;20218;-82
2022/03/01 05:37:42;;;;;;;12.52;8.20;;;;;;;;;;5070829;28;20211;-80
2022/03/01 05:40:10;;;;;;;13.13;8.25;;;;;;;;;;5061007;28;20195;-78
2022/03/01 05:42:39;;;;;;;11.57;8.52;;;;;;;;;;5049524;28;20300;-78
2022/03/01 05:45:06;;;;;;;13.35;9.00;;;;;;;;;;5053948;28;20223;-80
2022/03/01 05:47:35;;;;;;;11.63;8.13;;;;;;;;;;5067907;28;20277;-80
2022/03/01 05:50:03;;;;;;;12.50;8.02;;;;;;;;;;5065200;28;20190;-80
2022/03/01 05:52:30;;;;;;;10.50;8.57;;;;;;;;;;5070043;28;20201;-79
2022/03/01 05:54:57;;;;;;;12.75;8.52;;;;;;;;;;5069578;28;20213;-82
2022/03/01 05:57:28;;;;;;;10.93;7.63;;;;;;;;;;5068017;28;20294;-81
2022/03/01 05:59:55;;;;;;;11.10;8.00;;;;;;;;;;5070323;28;20225;-80
2022/03/01 06:02:22;;;;;;;13.98;8.23;;;;;;;;;;5064388;28;20584;-80
2022/03/01 06:04:51;;;;;;;15.13;8.98;;;;;;;;;;5067931;28;20621;-78
2022/03/01 06:07:18;;;;;;;14.52;9.10;;;;;;;;;;5066491;28;20224;-79
2022/03/01 06:09:45;;;;;;;14.25;8.25;;;;;;;;;;5069782;28;20571;-77
2022/03/01 06:12:12;;;;;;;11.63;8.73;;;;;;;;;;5067635;28;20198;-77
2022/03/01 06:14:39;;;;;;;16.08;8.75;;;;;;;;;;5068581;28;20610;-78
2022/03/01 06:17:07;;;;;;;14.02;9.82;;;;;;;;;;5066674;28;20198;-79
2022/03/01 06:19:34;;;;;;;16.75;8.73;;;;;;;;;;5050349;28;20226;-81
2022/03/01 06:22:02;;;;;;;15.73;8.95;;;;;;;;;;5065877;28;21122;-78
2022/03/01 06:24:30;;;;;;;12.65;8.93;;;;;;;;;;5066500;28;20593;-81
2022/03/01 06:26:57;;;;;;;16.70;8.63;;;;;;;;;;5069956;28;20203;-83
2022/03/01 06:29:26;;;;;;;12.73;9.00;;;;;;;;;;5066888;28;20559;-82
2022/03/01 06:31:53;;;;;;;10.45;8.10;;;;;;;;;;5071545;28;20710;-81
2022/03/01 06:34:21;;;;;;;16.10;9.27;;;;;;;;;;5073641;28;20233;-80
2022/03/01 06:36:49;;;;;;;15.50;8.55;;;;;;;;;;5063439;28;20225;-80
2022/03/01 06:39:17;;;;;;;14.68;9.10;;;;;;;;;;5075643;28;20194;-83
2022/03/01 06:41:44;;;;;;;15.98;8.50;;;;;;;;;;5074003;28;20605;-80
2022/03/01 06:44:12;;;;;;;14.45;9.20;;;;;;;;;;5070681;28;20585;-81
2022/03/01 06:46:39;;;;;;;13.55;8.70;;;;;;;;;;5070675;28;20198;-81
2022/03/01 06:49:06;;;;;;;13.25;8.32;;;;;;;;;;5073581;28;20194;-79
2022/03/01 06:51:33;;;;;;;14.02;8.70;;;;;;;;;;5071316;28;20209;-84
2022/03/01 06:54:00;;;;;;;16.55;9.40;;;;;;;;;;5073641;28;20209;-83
2022/03/01 06:56:29;;;;;;;12.75;8.55;;;;;;;;;;5073244;28;20229;-81
2022/03/01 06:58:56;;;;;;;17.15;9.80;;;;;;;;;;5060416;28;20256;-81
2022/03/01 07:01:24;;;;;;;14.30;8.20;;;;;;;;;;5065972;28;20248;-83
2022/03/01 07:03:51;;;;;;;13.75;8.98;;;;;;;;;;5073962;28;20213;-83
2022/03/01 07:06:18;;;;;;;15.25;9.05;;;;;;;;;;5070339;28;20229;-83
2022/03/01 07:08:45;;;;;;;14.05;8.40;;;;;;;;;;5069051;28;20556;-80
2022/03/01 07:11:12;;;;;;;15.13;9.73;;;;;;;;;;5073091;28;20561;-81
2022/03/01 07:13:41;;;;;;;14.32;9.07;;;;;;;;;;5073173;28;20193;-80
2022/03/01 07:16:08;;;;;;;19.27;10.23;;;;;;;;;;5071343;28;20582;-85
2022/03/01 07:18:35;;;;;;;15.57;9.65;;;;;;;;;;5067387;28;20193;-79
2022/03/01 07:21:02;;;;;;;13.43;8.88;;;;;;;;;;5055845;28;20289;-78
2022/03/01 07:23:29;;;;;;;13.82;8.95;;;;;;;;;;5068064;28;20222;-81
2022/03/01 07:25:57;;;;;;;15.57;9.30;;;;;;;;;;5067597;28;20226;-77
2022/03/01 07:28:24;;;;;;;12.80;9.60;;;;;;;;;;5071680;28;20669;-82
2022/03/01 07:30:52;;;;;;;14.43;9.07;;;;;;;;;;5071308;28;20201;-82
2022/03/01 07:33:19;;;;;;;18.25;10.52;;;;;;;;;;5070991;28;20200;-78
2022/03/01 07:35:47;;;;;;;14.45;9.82;;;;;;;;;;5071846;28;20221;-81
2022/03/01 07:38:14;;;;;;;13.73;8.85;;;;;;;;;;5071717;28;20288;-79
2022/03/01 07:40:41;;;;;;;15.43;10.35;;;;;;;;;;5070636;28;20198;-79
2022/03/01 07:43:08;;;;;;;14.73;8.75;;;;;;;;;;5069483;28;20313;-79
2022/03/01 07:45:36;;;;;;;16.30;9.00;;;;;;;;;;5068667;28;20213;-77
2022/03/01 07:48:05;;;;;;;12.95;9.05;;;;;;;;;;5070567;28;20621;-80
2022/03/01 07:50:34;;;;;;;15.10;9.70;;;;;;;;;;5072340;28;20289;-82
2022/03/01 07:53:01;;;;;;;13.35;9.10;;;;;;;;;;5064800;28;20198;-80
2022/03/01 07:55:29;;;;;;;15.80;8.77;;;;;;;;;;5072592;28;20687;-79
2022/03/01 07:57:57;;;;;;;12.82;9.18;;;;;;;;;;5063904;28;20198;-81
2022/03/01 08:00:25;;;;;;;14.40;9.20;;;;;;;;;;5067554;28;20559;-80
2022/03/01 08:02:53;;;;;;;17.00;9.55;;;;;;;;;;5068643;28;20571;-82
2022/03/01 08:05:21;;;;;;;16.10;9.35;;;;;;;;;;5070005;28;20221;-80
2022/03/01 08:07:49;;;;;;;14.85;9.80;;;;;;;;;;5070690;28;20747;-81
2022/03/01 08:10:16;;;;;;;14.63;9.30;;;;;;;;;;5072101;28;20301;-79
2022/03/01 08:12:43;;;;;;;15.57;9.80;;;;;;;;;;5068848;28;20296;-80
2022/03/01 08:15:11;;;;;;;11.63;8.05;;;;;;;;;;5061453;28;20217;-81
2022/03/01 08:17:38;;;;;;;14.48;10.18;;;;;;;;;;5067568;28;20198;-79
2022/03/01 08:20:07;;;;;;;13.63;9.65;;;;;;;;;;5069939;28;20194;-81
2022/03/01 08:22:35;;;;;;;15.00;8.55;;;;;;;;;;5071069;28;20210;-85
2022/03/01 08:25:02;;;;;;;18.08;9.07;;;;;;;;;;5071084;28;20279;-80
2022/03/01 08:27:29;;;;;;;16.38;10.27;;;;;;;;;;5071769;28;20206;-82
2022/03/01 08:29:57;;;;;;;14.95;8.88;;;;;;;;;;5059991;28;20190;-81
2022/03/01 08:32:24;;;;;;;17.55;10.30;;;;;;;;;;5063139;28;20244;-79
2022/03/01 08:34:51;;;;;;;14.25;9.23;;;;;;;;;;5068743;28;20575;-80
2022/03/01 08:37:18;;;;;;;16.33;9.75;;;;;;;;;;5069369;28;20663;-81
2022/03/01 08:39:47;;;;;;;13.75;9.35;;;;;;;;;;5070375;28;20225;-82
2022/03/01 08:42:14;;;;;;;15.75;9.90;;;;;;;;;;5071537;28;20201;-78
2022/03/01 08:44:41;;;;;;;14.63;9.45;;;;;;;;;;5062064;28;20230;-80
2022/03/01 08:47:08;;;;;;;13.82;9.55;;;;;;;;;;5055125;28;20202;-78
2022/03/01 08:49:35;;;;;;;15.50;10.40;;;;;;;;;;5068288;28;20201;-78
2022/03/01 08:52:03;;;;;;;16.33;10.18;;;;;;;;;;5063715;28;20202;-79
2022/03/01 08:54:30;;;;;;;17.40;10.43;;;;;;;;;;5067754;28;20292;-79
2022/03/01 08:56:58;;;;;;;16.70;11.27;;;;;;;;;;5061146;28;20213;-78
2022/03/01 08:59:26;;;;;;;12.85;9.02;;;;;;;;;;5050015;28;20199;-78
2022/03/01 09:01:53;;;;;;;12.57;9.95;;;;;;;;;;5048763;28;20197;-79
2022/03/01 09:04:20;;;;;;;14.05;10.88;;;;;;;;;;5049850;28;20257;-78
2022/03/01 09:06:47;;;;;;;13.95;10.63;;;;;;;;;;5063647;28;20213;-78
2022/03/01 09:09:14;;;;;;;13.03;8.87;;;;;;;;;;5058537;28;20695;-78
2022/03/01 09:11:41;;;;;;;14.67;10.00;;;;;;;;;;5060460;28;20437;-78
2022/03/01 09:14:10;;;;;;;13.32;10.45;;;;;;;;;;5062940;28;20941;-78
2022/03/01 09:16:38;;;;;;;12.57;8.90;;;;;;;;;;5067225;28;20194;-78
2022/03/01 09:19:05;;;;;;;11.70;9.20;;;;;;;;;;5055873;28;20551;-80
2022/03/01 09:21:33;;;;;;;13.88;9.30;;;;;;;;;;5060338;28;20468;-82
2022/03/01 09:24:00;;;;;;;13.40;9.23;;;;;;;;;;5062242;28;20226;-83
2022/03/01 09:26:27;;;;;;;15.10;9.82;;;;;;;;;;5061791;28;20194;-81
2022/03/01 09:28:54;;;;;;;15.88;10.02;;;;;;;;;;5064312;28;20205;-81
2022/03/01 09:31:25;;;;;;;15.70;10.50;;;;;;;;;;5045839;28;20570;-77
2022/03/01 09:33:52;;;;;;;14.68;9.75;;;;;;;;;;5047670;28;20194;-78
2022/03/01 09:36:19;;;;;;;16.33;10.02;;;;;;;;;;5055626;28;20726;-80
2022/03/01 09:38:47;;;;;;;16.37;9.80;;;;;;;;;;5062288;28;20562;-79
2022/03/01 09:41:14;;;;;;;15.32;9.95;;;;;;;;;;5056444;28;20511;-81
2022/03/01 09:43:41;;;;;;;13.27;9.30;;;;;;;;;;5061294;28;20222;-79
2022/03/01 09:46:09;;;;;;;17.37;9.70;;;;;;;;;;5058163;28;20244;-77
2022/03/01 09:48:39;;;;;;;14.87;10.57;;;;;;;;;;5064462;28;20440;-79
2022/03/01 09:51:08;;;;;;;12.77;9.53;;;;;;;;;;5065344;28;21019;-79
2022/03/01 09:53:36;;;;;;;17.10;9.50;;;;;;;;;;5046182;28;20547;-79
2022/03/01 09:56:04;;;;;;;14.73;9.18;;;;;;;;;;5047282;28;20473;-82
2022/03/01 09:58:32;;;;;;;12.55;9.35;;;;;;;;;;5048007;28;20625;-80
2022/03/01 10:00:59;;;;;;;11.48;8.93;;;;;;;;;;5047637;28;21341;-79
2022/03/01 10:03:28;;;;;;;11.77;8.43;;;;;;;;;;5063815;28;20230;-78
2022/03/01 10:06:06;;;;;;;14.60;9.38;;;;;;;;;;5067352;28;20225;-79
2022/03/01 10:08:34;;;;;;;13.50;9.00;;;;;;;;;;5069396;28;20188;-79
2022/03/01 10:11:02;;;;;;;13.95;9.45;;;;;;;;;;5068137;28;20286;-81
2022/03/01 10:13:31;;;;;;;11.93;8.70;;;;;;;;;;5070373;28;20698;-80
2022/03/01 10:16:06;;;;;;;13.05;8.85;;;;;;;;;;5051166;28;20476;-78
2022/03/01 10:18:35;;;;;;;13.35;10.15;;;;;;;;;;5057511;28;20190;-79
2022/03/01 10:21:04;;;;;;;12.77;8.52;;;;;;;;;;5056492;28;20793;-80
2022/03/01 10:23:32;;;;;;;14.38;8.88;;;;;;;;;;5050525;28;20227;-76
2022/03/01 10:25:59;;;;;;;13.70;8.90;;;;;;;;;;5064822;28;20661;-77
2022/03/01 10:28:37;;;;;;;11.35;8.85;;;;;;;;;;5068370;28;20220;-80
2022/03/01 10:31:13;;;;;;;11.27;8.45;;;;;;;;;;5068788;28;20194;-80
2022/03/01 10:33:41;;;;;;;12.98;8.75;;;;;;;;;;5068392;28;20201;-77
2022/03/01 10:36:10;;;;;;;13.40;8.13;;;;;;;;;;5070920;28;20663;-74
2022/03/01 10:38:39;;;;;;;12.73;7.97;;;;;;;;;;5056297;28;20559;-79
2022/03/01 10:41:06;;;;;;;25.70;10.10;;;;;;;;;;5055791;28;20460;-77
2022/03/01 10:43:35;;;;;;;12.97;8.03;;;;;;;;;;5068212;28;20598;-78
2022/03/01 10:46:08;;;;;;;13.37;8.73;;;;;;;;;;5063040;28;20480;-78
2022/03/01 10:48:36;;;;;;;11.33;7.97;;;;;;;;;;5050526;28;20445;-78
2022/03/01 10:51:05;;;;;;;13.53;8.77;;;;;;;;;;5070242;28;20447;-79
2022/03/01 10:53:34;;;;;;;12.07;8.07;;;;;;;;;;5069073;28;20450;-78
2022/03/01 10:56:02;;;;;;;10.20;7.93;;;;;;;;;;5068632;28;20460;-78
2022/03/01 10:58:30;;;;;;;11.80;8.63;;;;;;;;;;5063699;28;20455;-79
2022/03/01 11:00:57;;;;;;;12.43;8.87;;;;;;;;;;5065353;28;20472;-75
2022/03/01 11:03:25;;;;;;;14.63;9.13;;;;;;;;;;5067870;28;20436;-76
2022/03/01 11:05:54;;;;;;;14.20;8.00;;;;;;;;;;5056524;28;20519;-74
2022/03/01 11:08:22;;;;;;;12.43;8.53;;;;;;;;;;5057979;28;20447;-76
2022/03/01 11:10:52;;;;;;;14.80;9.33;;;;;;;;;;5066546;28;20468;-78
2022/03/01 11:13:20;;;;;;;14.43;8.87;;;;;;;;;;5064369;28;20475;-76
2022/03/01 11:16:03;;;;;;;13.67;8.30;;;;;;;;;;5055272;28;20484;-75
2022/03/01 11:18:35;;;;;;;11.80;8.80;;;;;;;;;;5063547;28;20460;-76
2022/03/01 11:21:04;;;;;;;11.97;8.47;;;;;;;;;;5065702;28;20843;-75
2022/03/01 11:23:31;;;;;;;14.80;8.27;;;;;;;;;;5087973;28;20435;-75
2022/03/01 11:26:08;;;;;;;13.03;9.17;;;;;;;;;;5088995;28;20506;-76
2022/03/01 11:28:40;;;;;;;15.00;9.10;;;;;;;;;;5088754;28;20450;-77
2022/03/01 11:31:19;;;;;;;13.60;8.80;;;;;;;;;;5089551;28;20475;-78
2022/03/01 11:33:54;;;;;;;10.33;8.00;;;;;;;;;;5058827;28;20977;-78
2022/03/01 11:36:22;;;;;;;13.23;9.07;;;;;;;;;;5065249;28;20546;-78
2022/03/01 11:38:49;;;;;;;12.23;8.30;;;;;;;;;;5065548;28;20515;-76
2022/03/01 11:41:20;;;;;;;11.53;8.53;;;;;;;;;;5067855;28;20440;-82
2022/03/01 11:43:53;;;;;;;9.60;7.10;;;;;;;;;;5050551;28;20583;-78
2022/03/01 11:46:21;;;;;;;16.50;8.90;;;;;;;;;;5070578;28;20977;-78
2022/03/01 11:48:51;;;;;;;12.70;8.50;;;;;;;;;;5066112;28;20457;-79
2022/03/01 11:51:18;;;;;;;14.43;8.60;;;;;;;;;;5063543;28;20463;-79
2022/03/01 11:53:49;;;;;;;13.63;8.20;;;;;;;;;;5069358;28;20440;-79
2022/03/01 11:56:18;;;;;;;13.90;8.53;;;;;;;;;;5068702;28;20539;-79
2022/03/01 11:58:50;;;;;;;13.67;8.50;;;;;;;;;;5069811;28;20498;-77
2022/03/01 12:01:22;;;;;;;13.73;8.37;;;;;;;;;;5069306;28;20545;-82
2022/03/01 12:03:50;;;;;;;11.37;7.70;;;;;;;;;;5072725;28;20475;-77
2022/03/01 12:06:21;;;;;;;16.80;8.53;;;;;;;;;;5074599;28;20463;-77
2022/03/01 12:08:50;;;;;;;10.47;7.50;;;;;;;;;;5070944;28;20814;-82
2022/03/01 12:11:17;;;;;;;12.07;7.53;;;;;;;;;;5071869;28;20456;-77
2022/03/01 12:13:46;;;;;;;11.53;7.73;;;;;;;;;;5068510;28;20465;-78
2022/03/01 12:16:15;;;;;;;10.53;7.00;;;;;;;;;;5068481;28;20470;-77
2022/03/01 12:18:43;;;;;;;14.23;7.73;;;;;;;;;;5062769;28;20561;-77
2022/03/01 12:21:11;;;;;;;9.17;7.37;;;;;;;;;;5052261;28;20449;-81
2022/03/01 12:23:39;;;;;;;9.30;6.70;;;;;;;;;;5052765;28;20456;-79
2022/03/01 12:26:07;;;;;;;9.43;6.37;;;;;;;;;;5050683;28;21021;-81
2022/03/01 12:28:38;;;;;;;9.63;7.30;;;;;;;;;;5051347;28;20453;-77
2022/03/01 12:31:08;;;;;;;10.17;7.27;;;;;;;;;;5061735;28;20436;-81
2022/03/01 12:33:37;;;;;;;10.53;7.67;;;;;;;;;;5065948;28;20437;-79
2022/03/01 12:36:08;;;;;;;11.33;7.40;;;;;;;;;;5052615;28;20481;-83
2022/03/01 12:38:39;;;;;;;9.13;7.23;;;;;;;;;;5063017;28;20960;-82
2022/03/01 12:41:09;;;;;;;11.03;7.60;;;;;;;;;;5058571;28;20448;-79
2022/03/01 12:43:37;;;;;;;9.60;7.03;;;;;;;;;;5057371;28;20460;-78
2022/03/01 12:46:04;;;;;;;10.60;7.93;;;;;;;;;;5055371;28;20492;-78
2022/03/01 12:48:31;;;;;;;11.50;7.70;;;;;;;;;;5056227;28;20442;-76
2022/03/01 12:51:03;;;;;;;10.03;7.27;;;;;;;;;;5067256;28;20472;-77
2022/03/01 12:53:30;;;;;;;10.17;7.77;;;;;;;;;;5067121;28;20460;-82
2022/03/01 12:55:57;;;;;;;10.67;7.10;;;;;;;;;;5075406;28;20459;-82
2022/03/01 12:58:27;;;;;;;11.87;8.37;;;;;;;;;;5068600;28;20456;-82
2022/03/01 13:00:55;;;;;;;11.80;7.87;;;;;;;;;;5070197;28;20441;-83
2022/03/01 13:03:26;;;;;;;10.83;7.63;;;;;;;;;;5065906;28;20463;-82
2022/03/01 13:06:04;;;;;;;11.60;8.20;;;;;;;;;;5063518;28;20506;-81
2022/03/01 13:08:32;;;;;;;12.27;8.10;;;;;;;;;;5067569;28;20436;-81
2022/03/01 13:10:59;;;;;;;10.70;7.50;;;;;;;;;;5049545;28;20445;-81
2022/03/01 13:13:26;;;;;;;15.37;8.67;;;;;;;;;;5049191;28;20444;-84
2022/03/01 13:15:53;;;;;;;10.23;8.50;;;;;;;;;;5049636;28;20457;-82
2022/03/01 13:18:26;;;;;;;14.63;7.80;;;;;;;;;;5051583;28;20453;-82
2022/03/01 13:20:53;;;;;;;12.23;8.07;;;;;;;;;;5057742;28;20871;-85
2022/03/01 13:23:27;;;;;;;11.33;7.93;;;;;;;;;;5070156;28;20780;-79
2022/03/01 13:25:55;;;;;;;11.50;8.10;;;;;;;;;;5071217;28;20475;-85
2022/03/01 13:28:30;;;;;;;11.37;8.20;;;;;;;;;;5066602;28;20822;-83
2022/03/01 13:30:58;;;;;;;13.77;8.27;;;;;;;;;;5065747;28;20451;-81
2022/03/01 13:33:28;;;;;;;13.80;8.30;;;;;;;;;;5054833;28;20819;-81
2022/03/01 13:35:55;;;;;;;12.83;9.07;;;;;;;;;;5053300;28;20538;-78
2022/03/01 13:38:25;;;;;;;13.70;8.50;;;;;;;;;;5068712;28;20471;-77
2022/03/01 13:40:52;;;;;;;14.80;9.93;;;;;;;;;;5066746;28;20452;-76
2022/03/01 13:43:24;;;;;;;15.63;8.80;;;;;;;;;;5063608;28;20457;-78
2022/03/01 13:45:56;;;;;;;12.43;7.90;;;;;;;;;;5064196;28;20866;-79
2022/03/01 13:48:23;;;;;;;12.97;8.40;;;;;;;;;;5070651;28;20872;-79
2022/03/01 13:50:50;;;;;;;12.60;7.70;;;;;;;;;;5064682;28;20451;-81
2022/03/01 13:53:19;;;;;;;16.53;10.60;;;;;;;;;;5062925;28;21273;-77
2022/03/01 13:55:48;;;;;;;13.40;8.80;;;;;;;;;;5067234;28;20476;-76
2022/03/01 13:58:16;;;;;;;14.97;9.07;;;;;;;;;;5069926;28;20444;-78
2022/03/01 14:00:44;;;;;;;14.10;8.47;;;;;;;;;;5070173;28;20444;-78
2022/03/01 14:03:12;;;;;;;17.63;9.00;;;;;;;;;;5064974;28;20946;-79
2022/03/01 14:05:44;;;;;;;17.50;9.90;;;;;;;;;;5064931;28;20496;-79
2022/03/01 14:08:12;;;;;;;13.97;9.70;;;;;;;;;;5064372;28;20499;-80
2022/03/01 14:10:41;;;;;;;16.33;10.40;;;;;;;;;;5064285;28;20445;-79
2022/03/01 14:13:10;;;;;;;12.33;9.10;;;;;;;;;;5048385;28;20464;-77
2022/03/01 14:15:38;;;;;;;12.00;8.97;;;;;;;;;;5047365;28;20488;-78
2022/03/01 14:18:06;;;;;;;13.27;9.23;;;;;;;;;;5048787;28;20798;-77
2022/03/01 14:20:34;;;;;;;11.90;8.57;;;;;;;;;;5054910;28;20440;-78
2022/03/01 14:23:01;;;;;;;16.57;9.73;;;;;;;;;;5057554;28;20492;-77
2022/03/01 14:25:29;;;;;;;13.03;8.53;;;;;;;;;;5065664;28;20488;-81
2022/03/01 14:27:56;;;;;;;15.10;9.27;;;;;;;;;;5063233;28;20474;-79
2022/03/01 14:30:25;;;;;;;11.87;9.10;;;;;;;;;;5050123;28;20453;-80
2022/03/01 14:32:54;;;;;;;17.03;10.53;;;;;;;;;;5049666;28;20484;-78
2022/03/01 14:35:21;;;;;;;15.90;10.40;;;;;;;;;;5058789;28;20558;-82
2022/03/01 14:37:48;;;;;;;16.37;9.60;;;;;;;;;;5049414;28;20445;-78